METAR Formatted Surface Weather Observation
Issued by NWS

Home | Current Version | Previous Version | Text Only | Print | Product List | Glossary On
Versions: 1 2 3 4 5 6 7 8 9 10 11 12 13 14
447
SAUS41 KLWX 272322 COR
MTRRSP
METAR KRSP 272254Z AUTO VRB03KT M1/4SM FG VV001 09/09 A2990 RMK AO2
SLP134 T00940089 $



USA.gov is the U.S. government's official web portal to all federal, state and local government web resources and services.